createdAt,value
2018-04-27T00:02:01.838Z,7.40
2018-04-27T00:04:29.374Z,7.40
2018-04-27T00:06:56.990Z,7.30
2018-04-27T00:09:24.501Z,7.40
2018-04-27T00:11:52.061Z,7.50
2018-04-27T00:14:19.603Z,7.60
2018-04-27T00:16:47.928Z,7.60
2018-04-27T00:19:15.461Z,7.60
2018-04-27T00:21:43.000Z,7.60
2018-04-27T00:24:11.421Z,7.50
2018-04-27T00:26:38.953Z,7.50
2018-04-27T00:29:06.544Z,7.50
2018-04-27T00:31:34.210Z,7.50
2018-04-27T00:34:02.550Z,7.40
2018-04-27T00:36:30.102Z,7.40
2018-04-27T00:38:58.442Z,7.20
2018-04-27T00:41:25.986Z,7.20
2018-04-27T00:43:53.561Z,7.30
2018-04-27T00:46:21.107Z,7.20
2018-04-27T00:48:48.683Z,7.20
2018-04-27T00:51:16.221Z,7.10
2018-04-27T00:53:43.785Z,7.10
2018-04-27T00:56:11.342Z,7.10
2018-04-27T00:58:38.922Z,7.10
2018-04-27T01:01:11.028Z,7.00
2018-04-27T01:03:38.586Z,7.00
2018-04-27T01:06:06.142Z,7.00
2018-04-27T01:08:33.716Z,7.00
2018-04-27T01:11:01.256Z,7.00
2018-04-27T01:13:28.791Z,6.90
2018-04-27T01:15:57.122Z,6.80
2018-04-27T01:18:24.672Z,6.80
2018-04-27T01:20:52.243Z,6.70
2018-04-27T01:23:19.801Z,6.60
2018-04-27T01:25:47.362Z,6.50
2018-04-27T01:28:14.895Z,6.40
2018-04-27T01:30:42.437Z,6.30
2018-04-27T01:33:09.974Z,6.30
2018-04-27T01:35:38.311Z,6.30
2018-04-27T01:38:05.847Z,6.30
2018-04-27T01:40:33.405Z,6.30
2018-04-27T01:43:00.954Z,6.30
2018-04-27T01:45:28.543Z,6.20
2018-04-27T01:47:56.093Z,6.20
2018-04-27T01:50:23.666Z,6.20
2018-04-27T01:52:51.238Z,6.20
2018-04-27T01:55:18.807Z,6.20
2018-04-27T01:57:46.345Z,6.10
2018-04-27T02:00:13.893Z,6.00
2018-04-27T02:02:41.451Z,6.00
2018-04-27T02:05:08.979Z,5.90
2018-04-27T02:07:37.305Z,5.80
2018-04-27T02:10:04.845Z,5.80
2018-04-27T02:12:32.456Z,5.90
2018-04-27T02:15:00.013Z,5.80
2018-04-27T02:17:27.572Z,5.70
2018-04-27T02:19:55.135Z,5.70
2018-04-27T02:22:22.710Z,5.60
2018-04-27T02:24:50.263Z,5.60
2018-04-27T02:27:17.826Z,5.60
2018-04-27T02:29:45.354Z,5.50
2018-04-27T02:32:12.941Z,5.40
2018-04-27T02:34:40.476Z,5.40
2018-04-27T02:37:08.051Z,5.30
2018-04-27T02:39:35.597Z,5.30
2018-04-27T02:42:03.880Z,5.20
2018-04-27T02:44:31.429Z,5.20
2018-04-27T02:46:58.961Z,5.20
2018-04-27T02:49:26.519Z,5.10
2018-04-27T02:51:54.057Z,5.10
2018-04-27T02:54:22.382Z,5.00
2018-04-27T02:56:49.912Z,5.00
2018-04-27T02:59:17.473Z,5.00
2018-04-27T03:01:44.993Z,5.00
2018-04-27T03:04:12.541Z,5.00
2018-04-27T03:06:40.060Z,5.00
2018-04-27T03:09:07.614Z,5.00
2018-04-27T03:11:35.149Z,5.00
2018-04-27T03:14:03.460Z,4.90
2018-04-27T03:16:31.000Z,4.90
2018-04-27T03:18:59.327Z,4.80
2018-04-27T03:21:26.898Z,4.80
2018-04-27T03:23:54.498Z,4.80
2018-04-27T03:26:21.990Z,4.70
2018-04-27T03:28:49.520Z,4.70
2018-04-27T03:31:17.850Z,4.60
2018-04-27T03:33:45.408Z,4.60
2018-04-27T03:36:12.967Z,4.60
2018-04-27T03:38:40.536Z,4.60
2018-04-27T03:41:08.109Z,4.50
2018-04-27T03:43:35.659Z,4.60
2018-04-27T03:46:03.235Z,4.60
2018-04-27T03:48:30.764Z,4.60
2018-04-27T03:50:59.079Z,4.60
2018-04-27T03:53:26.669Z,4.50
2018-04-27T03:55:54.354Z,4.60
2018-04-27T03:58:21.893Z,4.60
2018-04-27T04:01:01.490Z,4.60
2018-04-27T04:03:40.822Z,4.60
2018-04-27T04:06:08.388Z,4.70
2018-04-27T04:08:35.933Z,4.80
2018-04-27T04:11:03.460Z,4.80
2018-04-27T04:13:31.010Z,4.80
2018-04-27T04:15:58.562Z,4.80
2018-04-27T04:18:26.890Z,4.90
2018-04-27T04:20:54.462Z,4.90
2018-04-27T04:23:22.975Z,5.00
2018-04-27T04:25:50.498Z,5.10
2018-04-27T04:28:18.075Z,5.20
2018-04-27T04:30:46.389Z,5.30
2018-04-27T04:33:13.952Z,5.30
2018-04-27T04:35:41.494Z,5.40
2018-04-27T04:38:09.820Z,6.20
2018-04-27T04:40:37.368Z,6.20
2018-04-27T04:43:04.916Z,7.50
2018-04-27T04:45:32.459Z,8.50
2018-04-27T04:48:00.100Z,9.20
2018-04-27T04:50:27.604Z,10.00
2018-04-27T04:52:55.143Z,10.40
2018-04-27T04:55:22.712Z,10.80
2018-04-27T04:57:50.245Z,11.10
2018-04-27T05:00:17.819Z,11.70
2018-04-27T05:02:46.178Z,12.20
2018-04-27T05:05:13.747Z,12.10
2018-04-27T05:07:42.050Z,12.30
2018-04-27T05:10:09.610Z,12.30
2018-04-27T05:12:37.152Z,12.60
2018-04-27T05:15:05.509Z,12.70
2018-04-27T05:17:33.084Z,12.60
2018-04-27T05:20:00.915Z,12.70
2018-04-27T05:22:28.483Z,12.70
2018-04-27T05:24:56.031Z,13.00
2018-04-27T05:27:23.622Z,13.00
2018-04-27T05:29:51.171Z,13.00
2018-04-27T05:32:18.700Z,13.40
2018-04-27T05:34:46.280Z,13.30
2018-04-27T05:37:13.824Z,13.50
2018-04-27T05:39:41.365Z,13.00
2018-04-27T05:42:08.934Z,12.80
2018-04-27T05:44:36.472Z,13.30
2018-04-27T05:47:04.045Z,13.30
2018-04-27T05:49:31.580Z,13.20
2018-04-27T05:51:59.907Z,13.90
2018-04-27T05:54:27.453Z,13.90
2018-04-27T05:56:55.054Z,14.00
2018-04-27T05:59:22.595Z,13.90
2018-04-27T06:01:50.174Z,14.00
2018-04-27T06:04:17.723Z,13.70
2018-04-27T06:06:45.295Z,13.80
2018-04-27T06:09:12.855Z,13.70
2018-04-27T06:11:40.409Z,13.50
2018-04-27T06:14:08.721Z,13.80
2018-04-27T06:16:37.120Z,13.80
2018-04-27T06:19:05.432Z,14.70
2018-04-27T06:21:32.996Z,14.60
2018-04-27T06:24:00.562Z,15.30
2018-04-27T06:26:28.106Z,14.80
2018-04-27T06:28:55.688Z,14.50
2018-04-27T06:31:23.228Z,15.00
2018-04-27T06:33:50.798Z,15.20
2018-04-27T06:36:18.349Z,15.60
2018-04-27T06:38:46.705Z,15.90
2018-04-27T06:41:14.284Z,15.90
2018-04-27T06:43:41.873Z,16.10
2018-04-27T06:46:09.418Z,15.80
2018-04-27T06:48:37.744Z,15.10
2018-04-27T06:51:06.081Z,14.90
2018-04-27T06:53:33.711Z,14.80
2018-04-27T06:56:02.254Z,15.30
2018-04-27T06:58:29.819Z,15.60
2018-04-27T07:00:57.389Z,16.10
2018-04-27T07:03:25.734Z,15.80
2018-04-27T07:05:53.969Z,15.80
2018-04-27T07:08:21.530Z,16.20
2018-04-27T07:10:49.089Z,16.20
2018-04-27T07:13:16.620Z,16.10
2018-04-27T07:15:44.940Z,16.90
2018-04-27T07:18:12.492Z,16.90
2018-04-27T07:20:40.090Z,17.70
2018-04-27T07:23:07.707Z,18.00
2018-04-27T07:25:35.283Z,18.20
2018-04-27T07:28:02.822Z,17.80
2018-04-27T07:30:30.386Z,18.40
2018-04-27T07:32:57.934Z,18.10
2018-04-27T07:35:25.665Z,18.60
2018-04-27T07:37:53.226Z,18.50
2018-04-27T07:40:20.796Z,18.50
2018-04-27T07:42:48.351Z,17.70
2018-04-27T07:45:15.994Z,18.40
2018-04-27T07:47:43.496Z,18.40
2018-04-27T07:50:11.840Z,18.40
2018-04-27T07:52:39.369Z,18.40
2018-04-27T07:55:06.941Z,18.50
2018-04-27T07:57:34.557Z,18.30
2018-04-27T08:00:02.101Z,18.20
2018-04-27T08:02:30.530Z,18.90
2018-04-27T08:04:58.066Z,18.90
2018-04-27T08:07:25.652Z,20.00
2018-04-27T08:09:53.201Z,20.20
2018-04-27T08:12:20.861Z,20.10
2018-04-27T08:14:48.535Z,20.30
2018-04-27T08:17:17.277Z,20.00
2018-04-27T08:19:46.357Z,20.00
2018-04-27T08:22:13.985Z,20.00
2018-04-27T08:24:42.500Z,20.00
2018-04-27T08:27:10.121Z,19.60
2018-04-27T08:29:38.416Z,19.00
2018-04-27T08:32:07.061Z,19.40
2018-04-27T08:34:35.421Z,19.80
2018-04-27T08:37:03.071Z,19.70
2018-04-27T08:39:31.680Z,19.70
2018-04-27T08:41:59.370Z,19.70
2018-04-27T08:44:29.265Z,20.30
2018-04-27T08:46:58.208Z,20.70
2018-04-27T08:49:25.858Z,20.00
2018-04-27T08:51:53.599Z,19.50
2018-04-27T08:54:21.418Z,19.40
2018-04-27T08:56:50.795Z,19.30
2018-04-27T08:59:18.474Z,19.20
2018-04-27T09:01:47.022Z,19.40
2018-04-27T09:04:16.377Z,19.20
2018-04-27T09:06:43.932Z,19.20
2018-04-27T09:09:11.544Z,19.20
2018-04-27T09:11:39.173Z,19.70
2018-04-27T09:14:07.547Z,19.50
2018-04-27T09:16:37.076Z,19.50
2018-04-27T09:19:04.706Z,19.60
2018-04-27T09:21:33.077Z,19.60
2018-04-27T09:24:00.788Z,19.70
2018-04-27T09:26:28.493Z,18.60
2018-04-27T09:28:56.120Z,18.70
2018-04-27T09:31:23.874Z,19.60
2018-04-27T09:33:51.551Z,19.80
2018-04-27T09:36:19.219Z,19.90
2018-04-27T09:38:46.797Z,19.90
2018-04-27T09:41:14.380Z,19.60
2018-04-27T09:43:41.933Z,19.80
2018-04-27T09:46:09.590Z,20.20
2018-04-27T09:48:37.186Z,19.80
2018-04-27T09:51:04.808Z,19.70
2018-04-27T09:53:32.398Z,19.90
2018-04-27T09:56:01.784Z,20.10
2018-04-27T09:58:29.953Z,20.10
2018-04-27T10:00:57.701Z,19.20
2018-04-27T10:03:25.289Z,18.40
2018-04-27T10:05:52.906Z,18.40
2018-04-27T10:08:20.721Z,18.90
2018-04-27T10:10:48.339Z,19.80
2018-04-27T10:13:16.017Z,20.50
2018-04-27T10:15:47.348Z,20.60
2018-04-27T10:18:14.947Z,20.60
2018-04-27T10:20:42.549Z,20.20
2018-04-27T10:23:10.960Z,21.10
2018-04-27T10:25:38.574Z,21.00
2018-04-27T10:29:17.970Z,20.20
2018-04-27T10:31:45.559Z,19.70
2018-04-27T10:34:13.136Z,20.10
2018-04-27T10:36:40.801Z,20.50
2018-04-27T10:39:08.414Z,20.60
2018-04-27T10:41:35.979Z,20.80
2018-04-27T10:44:03.707Z,20.50
2018-04-27T10:46:32.029Z,20.10
2018-04-27T10:48:59.593Z,20.10
2018-04-27T10:51:27.141Z,20.10
2018-04-27T10:53:54.693Z,20.10
2018-04-27T10:56:22.277Z,20.30
2018-04-27T10:58:49.853Z,20.50
2018-04-27T11:01:17.405Z,20.70
2018-04-27T11:03:45.012Z,20.40
2018-04-27T11:06:12.573Z,20.90
2018-04-27T11:08:41.892Z,20.30
2018-04-27T11:11:09.478Z,20.30
2018-04-27T11:13:37.038Z,19.10
2018-04-27T11:16:04.595Z,18.60
2018-04-27T11:18:33.175Z,18.20
2018-04-27T11:21:00.760Z,18.90
2018-04-27T11:23:28.293Z,18.70
2018-04-27T11:25:55.862Z,19.10
2018-04-27T11:28:23.410Z,20.00
2018-04-27T11:30:50.969Z,19.50
2018-04-27T11:33:18.529Z,19.60
2018-04-27T11:35:46.092Z,19.50
2018-04-27T11:38:13.636Z,19.80
2018-04-27T11:40:41.212Z,19.60
2018-04-27T11:43:08.773Z,19.40
2018-04-27T11:45:36.372Z,19.30
2018-04-27T11:48:03.912Z,19.30
2018-04-27T11:50:31.471Z,19.30
2018-04-27T11:52:59.005Z,19.40
2018-04-27T11:55:26.580Z,19.30
2018-04-27T11:57:54.361Z,18.90
2018-04-27T12:00:21.940Z,18.80
2018-04-27T12:02:49.515Z,18.60
2018-04-27T12:05:17.878Z,18.20
2018-04-27T12:10:49.206Z,17.30
2018-04-27T12:13:16.741Z,17.30
2018-04-27T12:15:44.301Z,17.50
2018-04-27T12:18:11.861Z,17.50
2018-04-27T12:20:40.358Z,17.90
2018-04-27T12:23:07.918Z,18.00
2018-04-27T12:25:35.517Z,18.00
2018-04-27T12:28:03.255Z,18.20
2018-04-27T12:30:30.805Z,18.30
2018-04-27T12:32:58.364Z,17.90
2018-04-27T12:35:25.908Z,17.80
2018-04-27T12:37:53.484Z,17.70
2018-04-27T12:40:21.019Z,17.40
2018-04-27T12:42:48.603Z,17.20
2018-04-27T12:45:16.142Z,17.40
2018-04-27T12:47:43.701Z,17.60
2018-04-27T12:50:11.244Z,17.30
2018-04-27T12:52:39.582Z,17.60
2018-04-27T12:55:07.138Z,17.60
2018-04-27T12:57:34.707Z,17.70
2018-04-27T13:00:02.271Z,17.70
2018-04-27T13:02:29.807Z,17.80
2018-04-27T13:04:57.355Z,18.20
2018-04-27T13:07:24.891Z,18.20
2018-04-27T13:09:52.469Z,18.10
2018-04-27T13:12:20.018Z,17.60
2018-04-27T13:14:48.532Z,17.50
2018-04-27T13:17:16.075Z,17.20
2018-04-27T13:19:43.643Z,17.10
2018-04-27T13:22:11.179Z,17.10
2018-04-27T13:24:38.751Z,17.30
2018-04-27T13:27:06.297Z,17.70
2018-04-27T13:29:33.851Z,18.10
2018-04-27T13:32:02.341Z,18.30
2018-04-27T13:34:30.719Z,18.00
2018-04-27T13:36:59.216Z,18.00
2018-04-27T13:39:26.800Z,18.00
2018-04-27T13:41:54.338Z,17.80
2018-04-27T13:44:21.914Z,17.80
2018-04-27T13:46:49.472Z,17.50
2018-04-27T13:49:17.073Z,17.60
2018-04-27T13:51:44.614Z,17.50
2018-04-27T13:54:12.926Z,17.40
2018-04-27T13:56:41.250Z,17.20
2018-04-27T13:59:08.775Z,17.20
2018-04-27T14:01:37.096Z,17.40
2018-04-27T14:04:04.654Z,17.40
2018-04-27T14:06:32.211Z,17.40
2018-04-27T14:08:59.743Z,17.60
2018-04-27T14:11:27.328Z,17.80
2018-04-27T14:13:54.902Z,17.80
2018-04-27T14:16:22.480Z,17.50
2018-04-27T14:18:49.992Z,17.30
2018-04-27T14:21:17.588Z,17.30
2018-04-27T14:23:45.120Z,17.50
2018-04-27T14:26:12.680Z,17.80
2018-04-27T14:28:40.218Z,17.80
2018-04-27T14:31:07.786Z,17.80
2018-04-27T14:33:35.329Z,17.80
2018-04-27T14:36:03.651Z,17.80
2018-04-27T14:38:31.196Z,17.80
2018-04-27T14:40:58.872Z,17.60
2018-04-27T14:43:27.149Z,17.50
2018-04-27T14:45:54.726Z,17.50
2018-04-27T14:48:22.297Z,17.50
2018-04-27T14:50:49.834Z,17.70
2018-04-27T14:53:17.397Z,17.60
2018-04-27T14:55:44.931Z,17.50
2018-04-27T14:58:12.475Z,17.50
2018-04-27T15:00:40.772Z,17.60
2018-04-27T15:03:08.328Z,17.60
2018-04-27T15:05:35.856Z,17.60
2018-04-27T15:08:03.400Z,17.80
2018-04-27T15:10:30.948Z,17.70
2018-04-27T15:12:58.512Z,17.80
2018-04-27T15:15:26.813Z,18.00
2018-04-27T15:17:54.369Z,18.00
2018-04-27T15:20:21.907Z,17.70
2018-04-27T15:22:49.435Z,17.40
2018-04-27T15:25:17.010Z,17.50
2018-04-27T15:27:44.542Z,17.50
2018-04-27T15:30:12.112Z,17.30
2018-04-27T15:32:39.668Z,17.40
2018-04-27T15:35:07.240Z,17.40
2018-04-27T15:37:34.780Z,17.20
2018-04-27T15:40:03.843Z,17.30
2018-04-27T15:42:31.323Z,17.30
2018-04-27T15:44:59.678Z,17.00
2018-04-27T15:47:27.217Z,17.00
2018-04-27T15:49:54.784Z,16.80
2018-04-27T15:52:23.297Z,16.80
2018-04-27T15:54:50.885Z,16.70
2018-04-27T15:57:18.454Z,16.60
2018-04-27T15:59:46.046Z,16.40
2018-04-27T16:02:13.791Z,16.40
2018-04-27T16:04:41.378Z,16.40
2018-04-27T16:07:08.936Z,16.50
2018-04-27T16:09:36.500Z,16.60
2018-04-27T16:12:04.062Z,16.60
2018-04-27T16:14:31.617Z,16.60
2018-04-27T16:16:59.176Z,16.50
2018-04-27T16:19:26.715Z,16.40
2018-04-27T16:21:54.278Z,16.30
2018-04-27T16:24:21.841Z,16.30
2018-04-27T16:26:49.414Z,16.20
2018-04-27T16:29:16.965Z,16.10
2018-04-27T16:31:44.537Z,16.10
2018-04-27T16:34:12.093Z,16.00
2018-04-27T16:36:39.658Z,16.00
2018-04-27T16:39:07.199Z,15.90
2018-04-27T16:41:34.774Z,16.00
2018-04-27T16:44:02.357Z,15.90
2018-04-27T16:46:29.932Z,15.90
2018-04-27T16:48:58.254Z,15.90
2018-04-27T16:51:25.818Z,15.90
2018-04-27T16:53:53.393Z,16.00
2018-04-27T16:56:20.987Z,16.00
2018-04-27T16:58:48.932Z,16.10
2018-04-27T17:01:16.472Z,16.10
2018-04-27T17:03:44.110Z,16.00
2018-04-27T17:06:11.601Z,16.00
2018-04-27T17:08:39.172Z,15.80
2018-04-27T17:11:06.708Z,15.70
2018-04-27T17:13:34.317Z,15.70
2018-04-27T17:16:01.825Z,15.60
2018-04-27T17:18:29.377Z,15.60
2018-04-27T17:20:56.957Z,15.50
2018-04-27T17:23:24.509Z,15.50
2018-04-27T17:25:52.064Z,15.40
2018-04-27T17:28:19.672Z,15.40
2018-04-27T17:30:47.217Z,15.40
2018-04-27T17:33:14.779Z,15.40
2018-04-27T17:35:43.264Z,15.40
2018-04-27T17:38:10.829Z,15.40
2018-04-27T17:40:38.392Z,15.40
2018-04-27T17:43:05.956Z,15.30
2018-04-27T17:45:33.512Z,15.30
2018-04-27T17:48:01.073Z,15.20
2018-04-27T17:50:29.655Z,15.10
2018-04-27T17:52:57.181Z,15.00
2018-04-27T17:55:24.744Z,14.90
2018-04-27T17:57:52.263Z,14.80
2018-04-27T18:00:20.608Z,14.50
2018-04-27T18:02:48.157Z,14.50
2018-04-27T18:05:15.724Z,14.40
2018-04-27T18:07:43.257Z,14.30
2018-04-27T18:10:11.343Z,14.10
2018-04-27T18:12:38.908Z,14.00
2018-04-27T18:15:07.244Z,13.70
2018-04-27T18:17:35.562Z,13.60
2018-04-27T18:20:03.103Z,13.60
2018-04-27T18:22:30.685Z,13.50
2018-04-27T18:24:58.209Z,13.40
2018-04-27T18:27:25.752Z,13.40
2018-04-27T18:29:53.355Z,13.40
2018-04-27T18:32:20.880Z,13.30
2018-04-27T18:34:49.177Z,13.20
2018-04-27T18:37:16.751Z,13.20
2018-04-27T18:39:44.288Z,13.10
2018-04-27T18:42:11.913Z,13.00
2018-04-27T18:44:39.477Z,12.90
2018-04-27T18:47:07.815Z,13.00
2018-04-27T18:49:35.373Z,13.00
2018-04-27T18:52:02.909Z,13.00
2018-04-27T18:54:30.464Z,12.90
2018-04-27T18:56:58.763Z,12.80
2018-04-27T18:59:26.338Z,12.80
2018-04-27T19:01:53.883Z,12.70
2018-04-27T19:04:21.438Z,12.60
2018-04-27T19:06:48.984Z,12.60
2018-04-27T19:09:16.542Z,12.60
2018-04-27T19:11:44.086Z,12.50
2018-04-27T19:14:12.450Z,12.50
2018-04-27T19:16:40.804Z,12.40
2018-04-27T19:19:08.356Z,12.40
2018-04-27T19:21:35.929Z,12.40
2018-04-27T19:24:03.460Z,12.30
2018-04-27T19:26:31.036Z,12.30
2018-04-27T19:28:58.580Z,12.20
2018-04-27T19:31:26.150Z,12.20
2018-04-27T19:33:53.707Z,12.10
2018-04-27T19:36:21.383Z,12.00
2018-04-27T19:38:48.957Z,12.00
2018-04-27T19:41:16.507Z,11.90
2018-04-27T19:43:44.048Z,11.90
2018-04-27T19:46:11.612Z,11.90
2018-04-27T19:48:39.212Z,11.80
2018-04-27T19:51:06.771Z,11.80
2018-04-27T19:53:34.306Z,11.80
2018-04-27T19:56:01.840Z,11.60
2018-04-27T19:58:29.403Z,11.60
2018-04-27T20:00:56.987Z,11.50
2018-04-27T20:03:24.553Z,11.50
2018-04-27T20:05:52.097Z,11.50
2018-04-27T20:08:20.588Z,11.40
2018-04-27T20:10:48.344Z,11.40
2018-04-27T20:13:17.446Z,11.30
2018-04-27T20:15:48.578Z,11.20
2018-04-27T20:18:16.159Z,11.20
2018-04-27T20:20:45.749Z,11.10
2018-04-27T20:23:14.224Z,11.10
2018-04-27T20:25:42.751Z,11.10
2018-04-27T20:28:10.322Z,11.00
2018-04-27T20:30:38.552Z,11.00
2018-04-27T20:33:06.127Z,11.00
2018-04-27T20:35:33.688Z,10.90
2018-04-27T20:40:56.182Z,10.80
2018-04-27T20:43:24.702Z,10.70
2018-04-27T20:45:54.167Z,10.70
2018-04-27T20:48:24.545Z,10.60
2018-04-27T20:50:55.776Z,10.60
2018-04-27T20:53:23.347Z,10.60
2018-04-27T20:55:53.404Z,10.50
2018-04-27T20:58:20.979Z,10.50
2018-04-27T21:00:48.557Z,10.50
2018-04-27T21:03:16.899Z,10.50
2018-04-27T21:05:44.486Z,10.50
2018-04-27T21:08:12.025Z,10.50
2018-04-27T21:10:40.397Z,10.50
2018-04-27T21:13:08.919Z,10.40
2018-04-27T21:15:37.253Z,10.40
2018-04-27T21:18:06.598Z,10.40
2018-04-27T21:20:34.937Z,10.30
2018-04-27T21:23:03.349Z,10.30
2018-04-27T21:25:37.515Z,10.20
2018-04-27T21:31:01.684Z,10.20
2018-04-27T21:33:33.660Z,10.20
2018-04-27T21:36:01.943Z,10.20
2018-04-27T21:41:30.925Z,10.30
2018-04-27T21:44:05.991Z,10.30
2018-04-27T21:46:33.573Z,10.30
2018-04-27T21:49:17.756Z,10.30
2018-04-27T21:51:47.939Z,10.30
2018-04-27T21:54:15.469Z,10.30
2018-04-27T21:56:55.541Z,10.30
2018-04-27T21:59:25.787Z,10.30
2018-04-27T22:01:53.334Z,10.30
2018-04-27T22:04:21.664Z,10.30
2018-04-27T22:06:49.201Z,10.30
2018-04-27T22:09:16.761Z,10.20
2018-04-27T22:11:47.051Z,10.30
2018-04-27T22:14:34.310Z,10.20
2018-04-27T22:17:35.444Z,10.20
2018-04-27T22:20:03.001Z,10.10
2018-04-27T22:22:30.537Z,10.10
2018-04-27T22:25:19.007Z,10.10
2018-04-27T22:27:48.419Z,10.10
2018-04-27T22:30:17.624Z,10.10
2018-04-27T22:32:45.161Z,10.00
2018-04-27T22:35:13.407Z,10.00
2018-04-27T22:37:42.599Z,9.90
2018-04-27T22:40:33.661Z,10.00
2018-04-27T22:43:01.229Z,10.00
2018-04-27T22:45:33.409Z,9.90
2018-04-27T22:48:02.716Z,10.00
2018-04-27T22:50:30.292Z,10.00
2018-04-27T22:52:58.604Z,9.90
2018-04-27T22:55:26.196Z,9.90
2018-04-27T22:57:55.543Z,9.90
2018-04-27T23:00:27.810Z,9.80
2018-04-27T23:02:56.094Z,9.70
2018-04-27T23:05:34.088Z,9.70
2018-04-27T23:08:04.343Z,9.70
2018-04-27T23:10:38.452Z,9.70
2018-04-27T23:13:05.992Z,9.70
2018-04-27T23:15:36.803Z,9.70
2018-04-27T23:18:06.758Z,9.60
2018-04-27T23:20:36.280Z,9.70
2018-04-27T23:23:06.649Z,9.80
2018-04-27T23:25:34.870Z,9.80
2018-04-27T23:28:02.427Z,9.80
2018-04-27T23:30:32.876Z,9.80
2018-04-27T23:33:01.324Z,9.70
2018-04-27T23:35:29.626Z,9.60
2018-04-27T23:37:57.201Z,9.60
2018-04-27T23:40:24.736Z,9.60
2018-04-27T23:42:52.295Z,9.60
2018-04-27T23:45:19.848Z,9.60
2018-04-27T23:47:57.195Z,9.60
2018-04-27T23:50:24.715Z,9.60
2018-04-27T23:52:52.289Z,9.60
2018-04-27T23:55:20.513Z,9.60
2018-04-27T23:57:48.088Z,9.60
